createdAt,value
2023-03-17T00:04:44.148Z,1.45
2023-03-17T00:09:46.085Z,1.08
2023-03-17T00:14:48.382Z,1.40
2023-03-17T00:19:50.192Z,1.20
2023-03-17T00:24:52.075Z,1.30
2023-03-17T00:29:54.118Z,1.58
2023-03-17T00:34:56.518Z,1.38
2023-03-17T00:39:58.464Z,1.30
2023-03-17T00:45:00.308Z,1.30
2023-03-17T00:50:05.632Z,1.10
2023-03-17T00:55:09.233Z,1.48
2023-03-17T01:00:24.716Z,1.10
2023-03-17T01:05:26.680Z,1.30
2023-03-17T01:10:29.576Z,1.20
2023-03-17T01:15:32.612Z,1.42
2023-03-17T01:20:35.407Z,1.35
2023-03-17T01:25:39.104Z,1.02
2023-03-17T01:30:41.436Z,1.30
2023-03-17T01:35:45.789Z,1.33
2023-03-17T01:40:50.330Z,1.00
2023-03-17T01:46:28.087Z,1.02
2023-03-17T01:51:35.864Z,1.10
2023-03-17T01:56:42.300Z,1.38
2023-03-17T02:01:47.516Z,1.50
2023-03-17T02:06:58.016Z,1.40
2023-03-17T02:12:01.607Z,1.20
2023-03-17T02:17:03.537Z,1.10
2023-03-17T02:22:05.562Z,1.10
2023-03-17T02:27:13.001Z,1.60
2023-03-17T02:32:17.753Z,1.50
2023-03-17T02:37:20.329Z,1.40
2023-03-17T02:42:22.388Z,1.77
2023-03-17T02:47:24.338Z,1.45
2023-03-17T02:52:26.247Z,1.08
2023-03-17T02:57:28.230Z,1.50
2023-03-17T03:02:30.098Z,1.10
2023-03-17T03:07:32.624Z,1.30
2023-03-17T03:12:34.902Z,1.50
2023-03-17T03:17:36.713Z,1.42
2023-03-17T03:22:38.997Z,1.23
2023-03-17T03:27:41.216Z,1.15
2023-03-17T03:32:43.286Z,1.77
2023-03-17T03:37:45.204Z,1.60
2023-03-17T03:42:47.048Z,1.30
2023-03-17T03:47:49.083Z,1.67
2023-03-17T03:52:51.506Z,1.50
2023-03-17T03:57:53.401Z,1.10
2023-03-17T04:02:55.364Z,1.30
2023-03-17T04:07:57.228Z,1.50
2023-03-17T04:12:59.144Z,1.23
2023-03-17T04:18:01.196Z,1.30
2023-03-17T04:23:02.989Z,1.40
2023-03-17T04:28:05.111Z,1.30
2023-03-17T04:33:07.293Z,1.35
2023-03-17T04:38:11.772Z,1.23
2023-03-17T04:43:13.538Z,1.55
2023-03-17T04:48:15.362Z,1.42
2023-03-17T04:53:17.740Z,1.50
2023-03-17T04:58:30.293Z,1.48
2023-03-17T05:03:33.221Z,1.48
2023-03-17T05:08:35.044Z,1.20
2023-03-17T05:13:37.085Z,1.42
2023-03-17T05:18:39.359Z,1.73
2023-03-17T05:23:41.882Z,1.80
2023-03-17T05:28:43.743Z,1.77
2023-03-17T05:33:46.795Z,1.38
2023-03-17T05:38:48.630Z,1.40
2023-03-17T05:43:50.689Z,1.60
2023-03-17T05:48:52.464Z,1.50
2023-03-17T05:53:54.244Z,1.80
2023-03-17T05:58:56.009Z,1.33
2023-03-17T06:03:58.149Z,1.50
2023-03-17T06:09:00.209Z,1.42
2023-03-17T06:14:02.149Z,1.85
2023-03-17T06:19:03.930Z,1.58
2023-03-17T06:24:06.219Z,1.52
2023-03-17T06:29:09.805Z,1.75
2023-03-17T06:34:12.073Z,1.70
2023-03-17T06:39:15.771Z,1.50
2023-03-17T06:44:17.739Z,1.60
2023-03-17T06:49:19.552Z,1.67
2023-03-17T06:54:24.808Z,1.92
2023-03-17T06:59:26.575Z,2.00
2023-03-17T07:04:28.441Z,2.15
2023-03-17T07:09:30.243Z,1.95
2023-03-17T07:14:38.008Z,1.73
2023-03-17T07:19:40.771Z,1.50
2023-03-17T07:24:43.297Z,1.80
2023-03-17T07:29:45.668Z,2.20
2023-03-17T07:34:47.619Z,2.00
2023-03-17T07:39:49.508Z,1.65
2023-03-17T07:44:51.385Z,2.10
2023-03-17T07:49:53.478Z,2.08
2023-03-17T07:54:56.297Z,1.77
2023-03-17T07:59:58.819Z,1.83
2023-03-17T08:05:00.740Z,2.13
2023-03-17T08:10:03.222Z,2.08
2023-03-17T08:15:06.292Z,1.90
2023-03-17T08:20:09.749Z,1.80
2023-03-17T08:25:12.865Z,1.85
2023-03-17T08:30:16.633Z,2.13
2023-03-17T08:35:18.696Z,1.92
2023-03-17T08:40:21.114Z,2.45
2023-03-17T08:45:22.966Z,2.05
2023-03-17T08:50:25.669Z,2.00
2023-03-17T08:55:27.826Z,1.85
2023-03-17T09:00:29.977Z,1.85
2023-03-17T09:05:33.196Z,1.75
2023-03-17T09:10:37.038Z,2.00
2023-03-17T09:15:39.008Z,2.03
2023-03-17T09:20:41.378Z,2.03
2023-03-17T09:25:43.495Z,1.73
2023-03-17T09:30:46.076Z,2.75
2023-03-17T09:35:48.169Z,1.98
2023-03-17T09:41:07.826Z,2.35
2023-03-17T09:46:32.957Z,1.83
2023-03-17T09:51:35.854Z,2.17
2023-03-17T09:56:40.939Z,1.88
2023-03-17T10:01:43.342Z,2.15
2023-03-17T10:06:50.140Z,2.03
2023-03-17T10:12:02.348Z,1.73
2023-03-17T10:17:19.690Z,1.63
2023-03-17T10:22:29.333Z,1.50
2023-03-17T10:27:36.999Z,1.90
2023-03-17T10:32:40.110Z,1.60
2023-03-17T10:37:43.959Z,1.88
2023-03-17T10:42:49.087Z,1.65
2023-03-17T10:47:51.325Z,1.58
2023-03-17T10:52:58.052Z,1.77
2023-03-17T10:58:07.719Z,1.63
2023-03-17T11:03:16.648Z,1.60
2023-03-17T11:08:19.667Z,1.60
2023-03-17T11:13:21.916Z,1.58
2023-03-17T11:18:34.522Z,1.65
2023-03-17T11:23:42.488Z,1.88
2023-03-17T11:28:57.309Z,1.70
2023-03-17T11:34:05.377Z,2.15
2023-03-17T11:39:36.105Z,2.05
2023-03-17T11:50:17.740Z,1.83
2023-03-17T11:55:31.221Z,1.80
2023-03-17T12:00:38.397Z,2.47
2023-03-17T12:05:42.688Z,1.67
2023-03-17T12:10:55.546Z,1.67
2023-03-17T12:16:04.237Z,2.47
2023-03-17T12:21:42.002Z,2.00
2023-03-17T12:26:53.776Z,2.10
2023-03-17T12:32:03.278Z,2.13
2023-03-17T12:37:05.124Z,2.10
2023-03-17T12:42:36.466Z,1.73
2023-03-17T12:48:05.654Z,1.65
2023-03-17T12:53:19.326Z,1.88
2023-03-17T12:58:38.428Z,1.50
2023-03-17T13:04:16.698Z,1.90
2023-03-17T13:09:36.454Z,1.65
2023-03-17T13:14:46.919Z,1.50
2023-03-17T13:20:10.360Z,1.63
2023-03-17T13:25:20.413Z,1.98
2023-03-17T13:30:26.127Z,1.80
2023-03-17T13:35:41.260Z,1.73
2023-03-17T13:40:52.061Z,2.22
2023-03-17T13:46:15.397Z,1.50
2023-03-17T13:51:23.887Z,1.80
2023-03-17T13:56:37.418Z,1.90
2023-03-17T14:01:54.091Z,1.38
2023-03-17T14:07:04.721Z,1.30
2023-03-17T14:12:46.758Z,1.92
2023-03-17T14:18:02.293Z,1.50
2023-03-17T14:23:04.580Z,2.00
2023-03-17T14:28:11.194Z,1.48
2023-03-17T14:33:23.592Z,1.20
2023-03-17T14:38:45.655Z,1.83
2023-03-17T14:43:48.216Z,1.25
2023-03-17T14:48:59.775Z,1.70
2023-03-17T14:54:04.098Z,1.38
2023-03-17T14:59:51.252Z,1.40
2023-03-17T15:05:10.856Z,1.60
2023-03-17T15:10:30.892Z,1.63
2023-03-17T15:15:37.015Z,1.73
2023-03-17T15:20:39.277Z,1.50
2023-03-17T15:25:49.918Z,1.52
2023-03-17T15:30:54.546Z,1.25
2023-03-17T15:36:00.022Z,1.88
2023-03-17T15:41:02.044Z,1.25
2023-03-17T15:46:08.346Z,1.50
2023-03-17T15:51:10.755Z,1.30
2023-03-17T15:56:19.067Z,1.50
2023-03-17T16:01:21.335Z,2.15
2023-03-17T16:06:24.545Z,2.17
2023-03-17T16:11:30.646Z,1.83
2023-03-17T16:16:39.639Z,1.58
2023-03-17T16:21:41.518Z,1.40
2023-03-17T16:26:43.275Z,1.75
2023-03-17T16:31:49.142Z,1.40
2023-03-17T16:36:51.403Z,1.50
2023-03-17T16:41:53.559Z,1.30
2023-03-17T16:46:55.370Z,1.42
2023-03-17T16:51:57.175Z,1.40
2023-03-17T16:56:59.927Z,1.80
2023-03-17T17:02:02.059Z,1.70
2023-03-17T17:07:03.922Z,1.60
2023-03-17T17:12:06.098Z,1.92
2023-03-17T17:17:09.373Z,1.70
2023-03-17T17:22:11.762Z,1.83
2023-03-17T17:27:13.535Z,2.10
2023-03-17T17:32:18.083Z,2.03
2023-03-17T17:37:19.916Z,1.83
2023-03-17T17:42:21.964Z,2.10
2023-03-17T17:47:24.135Z,1.70
2023-03-17T17:52:26.419Z,2.40
2023-03-17T17:57:28.738Z,1.80
2023-03-17T18:02:30.733Z,2.00
2023-03-17T18:07:32.591Z,1.67
2023-03-17T18:12:34.534Z,2.10
2023-03-17T18:17:36.586Z,2.45
2023-03-17T18:22:38.440Z,2.70
2023-03-17T18:27:40.467Z,3.30
2023-03-17T18:32:43.669Z,3.10
2023-03-17T18:37:45.643Z,3.67
2023-03-17T18:42:47.552Z,3.50
2023-03-17T18:47:49.422Z,4.05
2023-03-17T18:52:51.399Z,4.13
2023-03-17T18:57:54.870Z,4.68
2023-03-17T19:02:56.968Z,4.40
2023-03-17T19:07:58.753Z,4.50
2023-03-17T19:13:00.583Z,4.60
2023-03-17T19:18:02.344Z,4.65
2023-03-17T19:23:07.958Z,4.78
2023-03-17T19:28:09.755Z,5.53
2023-03-17T19:33:16.233Z,5.00
2023-03-17T19:38:17.997Z,5.32
2023-03-17T19:43:39.018Z,4.97
2023-03-17T19:48:42.145Z,4.60
2023-03-17T19:53:44.059Z,5.00
2023-03-17T19:58:46.508Z,5.28
2023-03-17T20:03:48.577Z,5.70
2023-03-17T20:08:50.899Z,5.22
2023-03-17T20:13:54.203Z,5.20
2023-03-17T20:18:56.403Z,4.93
2023-03-17T20:23:58.320Z,5.05
2023-03-17T20:29:01.810Z,5.13
2023-03-17T20:34:03.593Z,5.07
2023-03-17T20:39:06.115Z,5.43
2023-03-17T20:44:08.119Z,4.80
2023-03-17T20:49:10.252Z,4.88
2023-03-17T20:54:12.956Z,5.45
2023-03-17T20:59:15.150Z,5.47
2023-03-17T21:04:17.699Z,4.93
2023-03-17T21:09:19.571Z,5.78
2023-03-17T21:14:21.544Z,4.85
2023-03-17T21:19:23.984Z,5.32
2023-03-17T21:24:31.220Z,5.30
2023-03-17T21:29:34.402Z,5.47
2023-03-17T21:34:38.036Z,5.20
2023-03-17T21:39:40.069Z,6.15
2023-03-17T21:44:42.306Z,5.68
2023-03-17T21:49:44.344Z,5.65
2023-03-17T21:54:46.231Z,5.90
2023-03-17T21:59:48.152Z,6.63
2023-03-17T22:04:50.299Z,5.60
2023-03-17T22:09:57.066Z,5.30
2023-03-17T22:14:59.059Z,6.50
2023-03-17T22:20:00.831Z,5.65
2023-03-17T22:25:05.512Z,5.68
2023-03-17T22:30:07.675Z,6.32
2023-03-17T22:35:09.529Z,6.43
2023-03-17T22:40:11.728Z,5.68
2023-03-17T22:45:13.512Z,6.05
2023-03-17T22:50:15.489Z,6.03
2023-03-17T22:55:17.350Z,5.60
2023-03-17T23:00:19.604Z,5.53
2023-03-17T23:05:21.457Z,5.05
2023-03-17T23:10:24.646Z,6.07
2023-03-17T23:15:26.648Z,5.95
2023-03-17T23:20:28.620Z,5.63
2023-03-17T23:25:30.989Z,6.00
2023-03-17T23:30:33.157Z,5.88
2023-03-17T23:35:35.979Z,6.05
2023-03-17T23:40:38.834Z,6.20
2023-03-17T23:45:44.040Z,6.43
2023-03-17T23:50:45.864Z,5.75
2023-03-17T23:55:47.974Z,7.00
